Whitehaven, Maryland
Current Conditions -  °F | °C
As of 1:03 AM on Wednesday 22 Oct 2014 (Local Time) from KSBY Reporting Station
Haze Haze  
Wind Chill: 57°   Ceiling: 12000
Heat Index: 57°   Visibility: 6mi
Dew Point: 54°   Wind: 3mph
Humidity: 88%   Direction: 10°N
Pressure: 29.83"   Gusts: NA
Location:  38.3297°N, 75.7943°W
Report Text: KSBY 220503Z AUTO 01003KT 6SM BR FEW006 OVC120 14/12 A2983 RMK AO2
Loading
Personal Weather Stations






























Interactive Weather Map
Tropical Storm Tracking
New forecast layout! Learn more

10-Day Weather Forecast

Advertisements
Track Severe Weather on mobile